Impacts TAF Board
For situational awareness. Not to be used for flight planning purposes.
IDs:

KROW - Roswell/Ind Arpt, NM, US

Issued at 1738 UTC 02 Aug 2021
Updated at 2107 UTC 02 Aug 2021
Potential Impact None Slight Moderate High
Time2051Z 02/22Z 02/23Z 03/00Z 03/01Z 03/02Z 03/03Z 03/04Z 03/05Z 03/06Z 03/07Z 03/08Z 03/09Z 03/10Z>>
Type OBS PRVL PRVL PRVL PRVL PRVL PRVL PRVL PRVL PRVL PRVL PRVL PRVL PRVL
VIS 9 >6 >6 >6 >6 >6 >6 >6 >6 >6 >6 >6 >6 >6
CIG 65 -- -- -- -- -- -- -- -- -- -- -- -- 80
Cover BKN SCT SCT SCT SCT SCT SCT SCT SCT SCT SCT SCT SCT BKN
FltCat VFR VFR VFR VFR VFR VFR VFR VFR VFR VFR VFR VFR VFR VFR
WX -- -- -- -- -- -- -- -- -- -- -- -- -- --
WDir 170 VRB VRB VRB VRB VRB VRB VRB VRB VRB VRB VRB VRB 170
WSpd 8 5 5 5 5 5 5 5 5 5 5 5 5 8
WGst -- -- -- -- -- -- -- -- -- -- -- -- -- --
Raw TAF
KROW 021738Z 0218/0318 VRB06KT P6SM BKN035
  FM022000 VRB05KT P6SM FEW050 SCT070
  FM031000 17008KT P6SM BKN080


Raw METAR
KROW 022051Z 17008KT 9SM SCT048 BKN065 28/15 A3023 RMK AO2 RAB1954E04 SLP172 P0000 60000 T02780150
KROW 021951Z 06005KT 8SM SCT046 OVC065 28/15 A3025 RMK AO2 SLP178 T02780150
KROW 021851Z VRB04KT 9SM BKN055 27/15 A3027 RMK AO2 SLP185 T02720150

METAR Board
Radar Display
Forecast Discussion
For situational awareness. Not to be used for flight planning purposes.